Fu Xing Hai — VRQE3 — position and weather

sailwx.info

Track history (hours):
 
Tides and Currents Weather Stations Pressure Air Temp Water Temp Dewpoint Dewpoint Depression Visibility Wind Speed Wind Dir Waves Ship Positions

Fu Xing Hai

Last reported at 2018-Jun-18 07:16 UTC. Time now 2018-Jul-16 16:03 UTC.
Position N 27°37' W 015°18'.
Warning: this ship's position is 28 days out of date.

Length 177 m; draft 9.5 m.

Type: Cargo ship. MMSI: 477252700.

Date/timePositionNaut miles runAvg speedWind from/ knotsBaromVisibWave heightAir tempDewpointWater temp
2018-Jun-18 07:16N 27°37' W 015°18'312.9
2018-Jun-18 07:00N 27°40' W 015°17'713.2
2018-Jun-18 06:30N 27°46' W 015°16'714.1
2018-Jun-18 06:00N 27°53' W 015°16'713.8
2018-Jun-18 05:30N 28°00' W 015°16'612.8
2018-Jun-18 05:00N 28°05' W 015°21'4 7.2
2018-Jun-18 04:30N 28°07' W 015°24'0 0.3
2018-Jun-18 03:59N 28°07' W 015°25'0 0.0
2018-Jun-18 03:29N 28°07' W 015°25'0 0.0
2018-Jun-18 02:47N 28°07' W 015°25'0 0.1
2018-Jun-18 02:28N 28°07' W 015°25'0 0.0
2018-Jun-18 01:58N 28°07' W 015°25'0 0.0
2018-Jun-18 01:29N 28°07' W 015°25'0 0.0
2018-Jun-18 00:50N 28°07' W 015°25'0 0.0
2018-Jun-18 00:29N 28°07' W 015°25'0 0.0
2018-Jun-17 23:50N 28°07' W 015°25'0 0.0
2018-Jun-17 23:19N 28°07' W 015°25'0 0.0
2018-Jun-17 22:53N 28°07' W 015°25'0 0.0
2018-Jun-17 22:23N 28°07' W 015°25'0 0.0
2018-Jun-17 21:53N 28°07' W 015°25'0 0.4
2018-Jun-17 21:30N 28°07' W 015°24'2 3.2
2018-Jun-17 21:00N 28°07' W 015°23'510.0
2018-Jun-17 20:30N 28°11' W 015°19'510.0
2018-Jun-17 20:00N 28°14' W 015°15'4 8.7
2018-Jun-17 19:30N 28°17' W 015°11'713.1
2018-Jun-17 19:00N 28°22' W 015°06'713.2
2018-Jun-17 18:30N 28°27' W 015°01'713.2
2018-Jun-17 18:00N 28°32' W 014°55'713.1
2018-Jun-17 17:30N 28°36' W 014°50'713.0
2018-Jun-17 17:00N 28°41' W 014°45'712.9
2018-Jun-17 16:29N 28°46' W 014°40'2712.9
2018-Jun-17 14:25N 29°05' W 014°18'712.9
2018-Jun-17 13:53N 29°10' W 014°13'712.9
2018-Jun-17 13:23N 29°14' W 014°08'512.5
2018-Jun-17 13:00N 29°18' W 014°04'712.9
2018-Jun-17 12:28N 29°23' W 013°59'713.2
2018-Jun-17 11:56N 29°28' W 013°53'47913.0
2018-Jun-15 23:08N 35°09' W 007°16'213.2
2018-Jun-15 22:59N 35°10' W 007°14'713.4
2018-Jun-15 22:28N 35°15' W 007°08'613.9
2018-Jun-15 22:00N 35°20' W 007°02'8411.9
2018-Jun-15 14:54N 35°59' W 005°30'6 9.3
2018-Jun-15 14:17N 35°60' W 005°23'2 8.8
2018-Jun-15 14:00N 36°01' W 005°21'611.3
2018-Jun-15 13:30N 36°03' W 005°14'21211.9
2018-Jun-14 19:42N 37°13' W 001°04'313.4
2018-Jun-14 19:30N 37°14' W 001°02'713.3
2018-Jun-14 19:00N 37°19' W 000°55'613.1
2018-Jun-14 18:30N 37°23' W 000°49'612.7
2018-Jun-14 18:00N 37°27' W 000°43'612.7
2018-Jun-14 17:30N 37°31' W 000°37'713.0
2018-Jun-14 17:00N 37°36' W 000°32'613.1
2018-Jun-14 16:30N 37°42' W 000°28'713.4
2018-Jun-14 15:59N 37°48' W 000°23'613.5
2018-Jun-14 15:30N 37°53' W 000°18'713.3
2018-Jun-14 15:00N 37°59' W 000°14'713.4
2018-Jun-14 14:29N 38°05' W 000°09'19213.3
2018-Jun-14 00:01N 40°52' E 001°53'413.7
2018-Jun-13 23:42N 40°56' E 001°56'313.5
2018-Jun-13 23:27N 40°59' E 001°58'613.3
2018-Jun-13 23:00N 41°04' E 002°01'612.5
2018-Jun-13 22:30N 41°10' E 002°05'510.3
2018-Jun-13 22:00N 41°14' E 002°08'4 7.3
2018-Jun-13 21:30N 41°17' E 002°10'3 6.6
2018-Jun-13 21:00N 41°21' E 002°10'1 1.8
2018-Jun-13 20:29N 41°22' E 002°10'0 0.0
2018-Jun-13 19:59N 41°22' E 002°11'0 0.0
2018-Jun-13 19:29N 41°22' E 002°10'0 0.0
2018-Jun-13 18:59N 41°22' E 002°10'0 0.0
2018-Jun-13 18:29N 41°22' E 002°11'0 0.0
2018-Jun-13 17:59N 41°22' E 002°11'0 0.0
2018-Jun-13 17:29N 41°22' E 002°11'0 0.0
2018-Jun-13 16:59N 41°22' E 002°11'0 0.0
2018-Jun-13 16:29N 41°22' E 002°10'0 0.0
2018-Jun-13 15:59N 41°22' E 002°10'0 0.0
2018-Jun-13 15:29N 41°22' E 002°10'0 0.0
2018-Jun-13 14:59N 41°22' E 002°11'0 0.0
2018-Jun-13 14:29N 41°22' E 002°11'0 0.0
2018-Jun-13 13:59N 41°22' E 002°10'0 0.0
2018-Jun-13 13:29N 41°22' E 002°10'0 0.0
2018-Jun-13 12:59N 41°22' E 002°10'0 0.0
2018-Jun-13 12:29N 41°22' E 002°10'0 0.0
2018-Jun-13 11:59N 41°22' E 002°11'0 0.0
2018-Jun-13 11:29N 41°22' E 002°11'0 0.0
2018-Jun-13 10:59N 41°22' E 002°11'0 0.0
2018-Jun-13 10:29N 41°22' E 002°11'0 0.0
2018-Jun-13 09:59N 41°22' E 002°11'0 0.0
2018-Jun-13 09:29N 41°22' E 002°10'0 0.0
2018-Jun-13 08:59N 41°22' E 002°11'0 0.0
2018-Jun-13 08:29N 41°22' E 002°11'0 0.0
2018-Jun-13 07:59N 41°22' E 002°11'0 0.0
2018-Jun-13 07:29N 41°22' E 002°11'0 0.0
2018-Jun-13 06:59N 41°22' E 002°11'0 0.0
2018-Jun-13 06:29N 41°22' E 002°10'0 0.0
2018-Jun-13 05:59N 41°22' E 002°10'0 0.0
2018-Jun-13 05:29N 41°22' E 002°10'0 0.0
2018-Jun-13 04:59N 41°22' E 002°11'0 0.0
2018-Jun-13 04:29N 41°22' E 002°10'0 0.0
2018-Jun-13 03:59N 41°22' E 002°11'0 0.0
2018-Jun-13 03:29N 41°22' E 002°10'0 0.0
2018-Jun-13 02:59N 41°22' E 002°10'0 0.0
2018-Jun-13 02:29N 41°22' E 002°11'0 0.0
2018-Jun-13 01:59N 41°22' E 002°10'0 0.0
2018-Jun-13 01:29N 41°22' E 002°11'0 0.0
2018-Jun-13 00:59N 41°22' E 002°11'0 0.0
2018-Jun-13 00:29N 41°22' E 002°11'0 0.0
2018-Jun-12 23:59N 41°22' E 002°11'0 0.0
2018-Jun-12 23:29N 41°22' E 002°10'0 0.0
2018-Jun-12 22:59N 41°22' E 002°11'0 0.0
2018-Jun-12 22:29N 41°22' E 002°10'0 0.0
2018-Jun-12 21:59N 41°22' E 002°11'0 0.0
2018-Jun-12 21:29N 41°22' E 002°10'0 0.0
2018-Jun-12 20:59N 41°22' E 002°10'0 0.0
2018-Jun-12 20:29N 41°22' E 002°10'0 0.0
2018-Jun-12 19:59N 41°22' E 002°10'0 0.0
2018-Jun-12 19:29N 41°22' E 002°11'0 0.0
2018-Jun-12 18:59N 41°22' E 002°10'0 0.0
2018-Jun-12 18:29N 41°22' E 002°11'0 0.0
2018-Jun-12 17:59N 41°22' E 002°11'0 0.0
2018-Jun-12 17:29N 41°22' E 002°10'0 0.0
2018-Jun-12 16:59N 41°22' E 002°11'0 0.0
2018-Jun-12 16:29N 41°22' E 002°11'0 0.0
2018-Jun-12 15:59N 41°22' E 002°11'0 0.0
2018-Jun-12 15:29N 41°22' E 002°10'0 0.0
2018-Jun-12 14:59N 41°22' E 002°11'0 0.0
2018-Jun-12 14:29N 41°22' E 002°11'0 0.0
2018-Jun-12 13:59N 41°22' E 002°10'0 0.0
2018-Jun-12 13:29N 41°22' E 002°10'0 0.0
2018-Jun-12 12:59N 41°22' E 002°10'0 0.0
2018-Jun-12 12:29N 41°22' E 002°11'0 0.0
2018-Jun-12 11:59N 41°22' E 002°10'0 0.0
2018-Jun-12 11:29N 41°22' E 002°11'0 0.0
2018-Jun-12 10:59N 41°22' E 002°11'0 0.0
2018-Jun-12 10:29N 41°22' E 002°11'0 0.0
2018-Jun-12 09:56N 41°22' E 002°11'0 0.0
2018-Jun-12 09:30N 41°22' E 002°11'0 1.0
2018-Jun-12 09:00N 41°21' E 002°10'3 6.5
2018-Jun-12 08:30N 41°18' E 002°11'3 6.3
2018-Jun-12 08:00N 41°15' E 002°10'3 5.6
2018-Jun-12 07:30N 41°13' E 002°07'610.2
2018-Jun-12 06:58N 41°08' E 002°03'4 9.9
2018-Jun-12 06:30N 41°05' E 001°59'5 9.9
2018-Jun-12 06:00N 41°01' E 001°54'510.3
2018-Jun-12 05:30N 40°57' E 001°50'  
Track history (hours):
 
Tides and Currents Weather Stations Pressure Air Temp Water Temp Dewpoint Dewpoint Depression Visibility Wind Speed Wind Dir Waves Ship Positions

Fu Xing Hai

Last reported at 2018-Jun-18 07:16 UTC. Time now 2018-Jul-16 16:03 UTC.
Position N 27°37' W 015°18'.
Warning: this ship's position is 28 days out of date.

Length 177 m; draft 9.5 m.

Type: Cargo ship. MMSI: 477252700.

Date/timePositionNaut miles runAvg speedWind from/ knotsBaromVisibWave heightAir tempDewpointWater temp
2018-Jun-18 07:16N 27°37' W 015°18'312.9
2018-Jun-18 07:00N 27°40' W 015°17'713.2
2018-Jun-18 06:30N 27°46' W 015°16'714.1
2018-Jun-18 06:00N 27°53' W 015°16'713.8
2018-Jun-18 05:30N 28°00' W 015°16'612.8
2018-Jun-18 05:00N 28°05' W 015°21'4 7.2
2018-Jun-18 04:30N 28°07' W 015°24'0 0.3
2018-Jun-18 03:59N 28°07' W 015°25'0 0.0
2018-Jun-18 03:29N 28°07' W 015°25'0 0.0
2018-Jun-18 02:47N 28°07' W 015°25'0 0.1
2018-Jun-18 02:28N 28°07' W 015°25'0 0.0
2018-Jun-18 01:58N 28°07' W 015°25'0 0.0
2018-Jun-18 01:29N 28°07' W 015°25'0 0.0
2018-Jun-18 00:50N 28°07' W 015°25'0 0.0
2018-Jun-18 00:29N 28°07' W 015°25'0 0.0
2018-Jun-17 23:50N 28°07' W 015°25'0 0.0
2018-Jun-17 23:19N 28°07' W 015°25'0 0.0
2018-Jun-17 22:53N 28°07' W 015°25'0 0.0
2018-Jun-17 22:23N 28°07' W 015°25'0 0.0
2018-Jun-17 21:53N 28°07' W 015°25'0 0.4
2018-Jun-17 21:30N 28°07' W 015°24'2 3.2
2018-Jun-17 21:00N 28°07' W 015°23'510.0
2018-Jun-17 20:30N 28°11' W 015°19'510.0
2018-Jun-17 20:00N 28°14' W 015°15'4 8.7
2018-Jun-17 19:30N 28°17' W 015°11'713.1
2018-Jun-17 19:00N 28°22' W 015°06'713.2
2018-Jun-17 18:30N 28°27' W 015°01'713.2
2018-Jun-17 18:00N 28°32' W 014°55'713.1
2018-Jun-17 17:30N 28°36' W 014°50'713.0
2018-Jun-17 17:00N 28°41' W 014°45'712.9
2018-Jun-17 16:29N 28°46' W 014°40'2712.9
2018-Jun-17 14:25N 29°05' W 014°18'712.9
2018-Jun-17 13:53N 29°10' W 014°13'712.9
2018-Jun-17 13:23N 29°14' W 014°08'512.5
2018-Jun-17 13:00N 29°18' W 014°04'712.9
2018-Jun-17 12:28N 29°23' W 013°59'713.2
2018-Jun-17 11:56N 29°28' W 013°53'47913.0
2018-Jun-15 23:08N 35°09' W 007°16'213.2
2018-Jun-15 22:59N 35°10' W 007°14'713.4
2018-Jun-15 22:28N 35°15' W 007°08'613.9
2018-Jun-15 22:00N 35°20' W 007°02'8411.9
2018-Jun-15 14:54N 35°59' W 005°30'6 9.3
2018-Jun-15 14:17N 35°60' W 005°23'2 8.8
2018-Jun-15 14:00N 36°01' W 005°21'611.3
2018-Jun-15 13:30N 36°03' W 005°14'21211.9
2018-Jun-14 19:42N 37°13' W 001°04'313.4
2018-Jun-14 19:30N 37°14' W 001°02'713.3
2018-Jun-14 19:00N 37°19' W 000°55'613.1
2018-Jun-14 18:30N 37°23' W 000°49'612.7
2018-Jun-14 18:00N 37°27' W 000°43'612.7
2018-Jun-14 17:30N 37°31' W 000°37'713.0
2018-Jun-14 17:00N 37°36' W 000°32'613.1
2018-Jun-14 16:30N 37°42' W 000°28'713.4
2018-Jun-14 15:59N 37°48' W 000°23'613.5
2018-Jun-14 15:30N 37°53' W 000°18'713.3
2018-Jun-14 15:00N 37°59' W 000°14'713.4
2018-Jun-14 14:29N 38°05' W 000°09'19213.3
2018-Jun-14 00:01N 40°52' E 001°53'413.7
2018-Jun-13 23:42N 40°56' E 001°56'313.5
2018-Jun-13 23:27N 40°59' E 001°58'613.3
2018-Jun-13 23:00N 41°04' E 002°01'612.5
2018-Jun-13 22:30N 41°10' E 002°05'510.3
2018-Jun-13 22:00N 41°14' E 002°08'4 7.3
2018-Jun-13 21:30N 41°17' E 002°10'3 6.6
2018-Jun-13 21:00N 41°21' E 002°10'1 1.8
2018-Jun-13 20:29N 41°22' E 002°10'0 0.0
2018-Jun-13 19:59N 41°22' E 002°11'0 0.0
2018-Jun-13 19:29N 41°22' E 002°10'0 0.0
2018-Jun-13 18:59N 41°22' E 002°10'0 0.0
2018-Jun-13 18:29N 41°22' E 002°11'0 0.0
2018-Jun-13 17:59N 41°22' E 002°11'0 0.0
2018-Jun-13 17:29N 41°22' E 002°11'0 0.0
2018-Jun-13 16:59N 41°22' E 002°11'0 0.0
2018-Jun-13 16:29N 41°22' E 002°10'0 0.0
2018-Jun-13 15:59N 41°22' E 002°10'0 0.0
2018-Jun-13 15:29N 41°22' E 002°10'0 0.0
2018-Jun-13 14:59N 41°22' E 002°11'0 0.0
2018-Jun-13 14:29N 41°22' E 002°11'0 0.0
2018-Jun-13 13:59N 41°22' E 002°10'0 0.0
2018-Jun-13 13:29N 41°22' E 002°10'0 0.0
2018-Jun-13 12:59N 41°22' E 002°10'0 0.0
2018-Jun-13 12:29N 41°22' E 002°10'0 0.0
2018-Jun-13 11:59N 41°22' E 002°11'0 0.0
2018-Jun-13 11:29N 41°22' E 002°11'0 0.0
2018-Jun-13 10:59N 41°22' E 002°11'0 0.0
2018-Jun-13 10:29N 41°22' E 002°11'0 0.0
2018-Jun-13 09:59N 41°22' E 002°11'0 0.0
2018-Jun-13 09:29N 41°22' E 002°10'0 0.0
2018-Jun-13 08:59N 41°22' E 002°11'0 0.0
2018-Jun-13 08:29N 41°22' E 002°11'0 0.0
2018-Jun-13 07:59N 41°22' E 002°11'0 0.0
2018-Jun-13 07:29N 41°22' E 002°11'0 0.0
2018-Jun-13 06:59N 41°22' E 002°11'0 0.0
2018-Jun-13 06:29N 41°22' E 002°10'0 0.0
2018-Jun-13 05:59N 41°22' E 002°10'0 0.0
2018-Jun-13 05:29N 41°22' E 002°10'0 0.0
2018-Jun-13 04:59N 41°22' E 002°11'0 0.0
2018-Jun-13 04:29N 41°22' E 002°10'0 0.0
2018-Jun-13 03:59N 41°22' E 002°11'0 0.0
2018-Jun-13 03:29N 41°22' E 002°10'0 0.0
2018-Jun-13 02:59N 41°22' E 002°10'0 0.0
2018-Jun-13 02:29N 41°22' E 002°11'0 0.0
2018-Jun-13 01:59N 41°22' E 002°10'0 0.0
2018-Jun-13 01:29N 41°22' E 002°11'0 0.0
2018-Jun-13 00:59N 41°22' E 002°11'0 0.0
2018-Jun-13 00:29N 41°22' E 002°11'0 0.0
2018-Jun-12 23:59N 41°22' E 002°11'0 0.0
2018-Jun-12 23:29N 41°22' E 002°10'0 0.0
2018-Jun-12 22:59N 41°22' E 002°11'0 0.0
2018-Jun-12 22:29N 41°22' E 002°10'0 0.0
2018-Jun-12 21:59N 41°22' E 002°11'0 0.0
2018-Jun-12 21:29N 41°22' E 002°10'0 0.0
2018-Jun-12 20:59N 41°22' E 002°10'0 0.0
2018-Jun-12 20:29N 41°22' E 002°10'0 0.0
2018-Jun-12 19:59N 41°22' E 002°10'0 0.0
2018-Jun-12 19:29N 41°22' E 002°11'0 0.0
2018-Jun-12 18:59N 41°22' E 002°10'0 0.0
2018-Jun-12 18:29N 41°22' E 002°11'0 0.0
2018-Jun-12 17:59N 41°22' E 002°11'0 0.0
2018-Jun-12 17:29N 41°22' E 002°10'0 0.0
2018-Jun-12 16:59N 41°22' E 002°11'0 0.0
2018-Jun-12 16:29N 41°22' E 002°11'0 0.0
2018-Jun-12 15:59N 41°22' E 002°11'0 0.0
2018-Jun-12 15:29N 41°22' E 002°10'0 0.0
2018-Jun-12 14:59N 41°22' E 002°11'0 0.0
2018-Jun-12 14:29N 41°22' E 002°11'0 0.0
2018-Jun-12 13:59N 41°22' E 002°10'0 0.0
2018-Jun-12 13:29N 41°22' E 002°10'0 0.0
2018-Jun-12 12:59N 41°22' E 002°10'0 0.0
2018-Jun-12 12:29N 41°22' E 002°11'0 0.0
2018-Jun-12 11:59N 41°22' E 002°10'0 0.0
2018-Jun-12 11:29N 41°22' E 002°11'0 0.0
2018-Jun-12 10:59N 41°22' E 002°11'0 0.0
2018-Jun-12 10:29N 41°22' E 002°11'0 0.0
2018-Jun-12 09:56N 41°22' E 002°11'0 0.0
2018-Jun-12 09:30N 41°22' E 002°11'0 1.0
2018-Jun-12 09:00N 41°21' E 002°10'3 6.5
2018-Jun-12 08:30N 41°18' E 002°11'3 6.3
2018-Jun-12 08:00N 41°15' E 002°10'3 5.6
2018-Jun-12 07:30N 41°13' E 002°07'610.2
2018-Jun-12 06:58N 41°08' E 002°03'4 9.9
2018-Jun-12 06:30N 41°05' E 001°59'5 9.9
2018-Jun-12 06:00N 41°01' E 001°54'510.3
2018-Jun-12 05:30N 40°57' E 001°50'  

Dump ship's entire track history